sensor_id;sensor_type;location;lat;lon;timestamp;temperature;humidity
63976;DHT22;50167;47.958;21.780;2023-05-14T00:01:49;14.95;61.24
63976;DHT22;50167;47.958;21.780;2023-05-14T00:04:16;15.22;60.58
63976;DHT22;50167;47.958;21.780;2023-05-14T00:06:45;15.54;59.31
63976;DHT22;50167;47.958;21.780;2023-05-14T00:09:11;15.13;57.01
63976;DHT22;50167;47.958;21.780;2023-05-14T00:11:38;14.08;58.28
63976;DHT22;50167;47.958;21.780;2023-05-14T00:14:04;13.20;60.19
63976;DHT22;50167;47.958;21.780;2023-05-14T00:16:30;12.55;61.84
63976;DHT22;50167;47.958;21.780;2023-05-14T00:18:57;12.66;64.84
63976;DHT22;50167;47.958;21.780;2023-05-14T00:21:23;13.60;65.50
63976;DHT22;50167;47.958;21.780;2023-05-14T00:23:49;14.31;63.39
63976;DHT22;50167;47.958;21.780;2023-05-14T00:26:16;14.84;62.02
63976;DHT22;50167;47.958;21.780;2023-05-14T00:28:42;15.16;60.94
63976;DHT22;50167;47.958;21.780;2023-05-14T00:31:08;15.44;59.79
63976;DHT22;50167;47.958;21.780;2023-05-14T00:33:34;15.09;57.31
63976;DHT22;50167;47.958;21.780;2023-05-14T00:36:01;14.00;58.04
63976;DHT22;50167;47.958;21.780;2023-05-14T00:38:27;13.06;59.86
63976;DHT22;50167;47.958;21.780;2023-05-14T00:40:54;12.41;61.47
63976;DHT22;50167;47.958;21.780;2023-05-14T00:43:21;11.83;63.16
63976;DHT22;50167;47.958;21.780;2023-05-14T00:45:52;12.12;66.07
63976;DHT22;50167;47.958;21.780;2023-05-14T00:48:19;13.06;66.89
63976;DHT22;50167;47.958;21.780;2023-05-14T00:50:46;13.85;64.91
63976;DHT22;50167;47.958;21.780;2023-05-14T00:53:13;14.37;63.07
63976;DHT22;50167;47.958;21.780;2023-05-14T00:55:41;14.70;61.09
63976;DHT22;50167;47.958;21.780;2023-05-14T00:58:12;14.95;60.40
63976;DHT22;50167;47.958;21.780;2023-05-14T01:00:40;15.12;59.38
63976;DHT22;50167;47.958;21.780;2023-05-14T01:03:07;14.71;57.18
63976;DHT22;50167;47.958;21.780;2023-05-14T01:08:49;12.62;60.46
63976;DHT22;50167;47.958;21.780;2023-05-14T01:11:31;11.89;62.20
63976;DHT22;50167;47.958;21.780;2023-05-14T01:16:58;13.03;64.82
63976;DHT22;50167;47.958;21.780;2023-05-14T01:19:42;13.51;63.78
63976;DHT22;50167;47.958;21.780;2023-05-14T01:22:10;13.96;62.69
63976;DHT22;50167;47.958;21.780;2023-05-14T01:24:36;14.33;61.44
63976;DHT22;50167;47.958;21.780;2023-05-14T01:32:49;14.03;57.57
63976;DHT22;50167;47.958;21.780;2023-05-14T01:35:15;12.87;54.76
63976;DHT22;50167;47.958;21.780;2023-05-14T01:37:43;12.04;59.62
63976;DHT22;50167;47.958;21.780;2023-05-14T01:40:10;11.40;62.73
63976;DHT22;50167;47.958;21.780;2023-05-14T01:42:37;11.66;66.49
63976;DHT22;50167;47.958;21.780;2023-05-14T01:45:04;12.75;66.82
63976;DHT22;50167;47.958;21.780;2023-05-14T01:47:31;13.52;64.50
63976;DHT22;50167;47.958;21.780;2023-05-14T01:49:57;14.08;62.40
63976;DHT22;50167;47.958;21.780;2023-05-14T01:52:24;14.43;60.85
63976;DHT22;50167;47.958;21.780;2023-05-14T01:54:51;14.72;59.52
63976;DHT22;50167;47.958;21.780;2023-05-14T01:57:17;14.31;57.57
63976;DHT22;50167;47.958;21.780;2023-05-14T01:59:43;13.27;58.30
63976;DHT22;50167;47.958;21.780;2023-05-14T02:02:09;12.37;59.68
63976;DHT22;50167;47.958;21.780;2023-05-14T02:04:36;11.58;61.80
63976;DHT22;50167;47.958;21.780;2023-05-14T02:07:02;11.61;65.54
63976;DHT22;50167;47.958;21.780;2023-05-14T02:09:29;12.64;66.19
63976;DHT22;50167;47.958;21.780;2023-05-14T02:11:55;13.40;63.99
63976;DHT22;50167;47.958;21.780;2023-05-14T02:14:21;13.86;62.26
63976;DHT22;50167;47.958;21.780;2023-05-14T02:16:48;14.19;60.83
63976;DHT22;50167;47.958;21.780;2023-05-14T02:19:16;14.47;59.68
63976;DHT22;50167;47.958;21.780;2023-05-14T02:21:42;14.08;57.52
63976;DHT22;50167;47.958;21.780;2023-05-14T02:24:08;13.03;58.56
63976;DHT22;50167;47.958;21.780;2023-05-14T02:26:34;12.17;60.07
63976;DHT22;50167;47.958;21.780;2023-05-14T02:29:00;11.45;61.86
63976;DHT22;50167;47.958;21.780;2023-05-14T02:31:27;11.55;65.74
63976;DHT22;50167;47.958;21.780;2023-05-14T02:33:53;12.61;66.22
63976;DHT22;50167;47.958;21.780;2023-05-14T02:36:19;13.37;63.94
63976;DHT22;50167;47.958;21.780;2023-05-14T02:38:46;13.79;62.34
63976;DHT22;50167;47.958;21.780;2023-05-14T02:41:12;14.09;60.85
63976;DHT22;50167;47.958;21.780;2023-05-14T02:43:38;14.31;59.89
63976;DHT22;50167;47.958;21.780;2023-05-14T02:46:06;13.95;57.72
63976;DHT22;50167;47.958;21.780;2023-05-14T02:48:35;12.89;58.51
63976;DHT22;50167;47.958;21.780;2023-05-14T02:51:01;12.00;60.17
63976;DHT22;50167;47.958;21.780;2023-05-14T02:53:27;11.30;62.13
63976;DHT22;50167;47.958;21.780;2023-05-14T02:55:54;11.47;65.57
63976;DHT22;50167;47.958;21.780;2023-05-14T02:58:20;12.34;65.40
63976;DHT22;50167;47.958;21.780;2023-05-14T03:00:47;12.98;64.37
63976;DHT22;50167;47.958;21.780;2023-05-14T03:03:13;13.43;62.78
63976;DHT22;50167;47.958;21.780;2023-05-14T03:05:41;13.82;61.77
63976;DHT22;50167;47.958;21.780;2023-05-14T03:08:07;14.13;60.45
63976;DHT22;50167;47.958;21.780;2023-05-14T03:10:34;14.40;59.32
63976;DHT22;50167;47.958;21.780;2023-05-14T03:13:00;13.98;57.23
63976;DHT22;50167;47.958;21.780;2023-05-14T03:15:26;12.89;58.13
63976;DHT22;50167;47.958;21.780;2023-05-14T03:17:53;11.96;60.07
63976;DHT22;50167;47.958;21.780;2023-05-14T03:20:19;11.22;62.11
63976;DHT22;50167;47.958;21.780;2023-05-14T03:22:46;11.35;65.34
63976;DHT22;50167;47.958;21.780;2023-05-14T03:25:12;12.27;65.17
63976;DHT22;50167;47.958;21.780;2023-05-14T03:27:38;12.91;64.55
63976;DHT22;50167;47.958;21.780;2023-05-14T03:30:06;13.38;63.41
63976;DHT22;50167;47.958;21.780;2023-05-14T03:32:32;13.84;61.94
63976;DHT22;50167;47.958;21.780;2023-05-14T03:34:59;14.17;60.58
63976;DHT22;50167;47.958;21.780;2023-05-14T03:37:25;14.37;59.98
63976;DHT22;50167;47.958;21.780;2023-05-14T03:39:53;14.67;59.29
63976;DHT22;50167;47.958;21.780;2023-05-14T03:42:19;14.31;57.27
63976;DHT22;50167;47.958;21.780;2023-05-14T03:44:45;13.30;58.36
63976;DHT22;50167;47.958;21.780;2023-05-14T03:47:12;12.52;60.51
63976;DHT22;50167;47.958;21.780;2023-05-14T03:49:38;11.92;61.79
63976;DHT22;50167;47.958;21.780;2023-05-14T03:52:04;12.12;65.38
63976;DHT22;50167;47.958;21.780;2023-05-14T03:54:31;13.14;65.52
63976;DHT22;50167;47.958;21.780;2023-05-14T03:56:57;13.93;63.17
63976;DHT22;50167;47.958;21.780;2023-05-14T03:59:23;14.54;61.43
63976;DHT22;50167;47.958;21.780;2023-05-14T04:01:49;15.02;59.89
63976;DHT22;50167;47.958;21.780;2023-05-14T04:04:15;14.86;57.47
63976;DHT22;50167;47.958;21.780;2023-05-14T04:06:42;13.93;58.04
63976;DHT22;50167;47.958;21.780;2023-05-14T04:09:08;13.16;59.78
63976;DHT22;50167;47.958;21.780;2023-05-14T04:11:36;12.59;61.70
63976;DHT22;50167;47.958;21.780;2023-05-14T04:14:02;12.91;64.56
63976;DHT22;50167;47.958;21.780;2023-05-14T04:16:28;13.86;63.39
63976;DHT22;50167;47.958;21.780;2023-05-14T04:18:54;14.70;61.96
63976;DHT22;50167;47.958;21.780;2023-05-14T04:21:21;15.33;59.96
63976;DHT22;50167;47.958;21.780;2023-05-14T04:23:47;15.23;57.56
63976;DHT22;50167;47.958;21.780;2023-05-14T04:26:14;14.41;58.06
63976;DHT22;50167;47.958;21.780;2023-05-14T04:28:40;13.68;60.77
63976;DHT22;50167;47.958;21.780;2023-05-14T04:31:07;13.17;62.78
63976;DHT22;50167;47.958;21.780;2023-05-14T04:33:33;13.50;63.75
63976;DHT22;50167;47.958;21.780;2023-05-14T04:35:59;14.57;63.17
63976;DHT22;50167;47.958;21.780;2023-05-14T04:38:26;15.34;60.79
63976;DHT22;50167;47.958;21.780;2023-05-14T04:40:53;15.95;58.88
63976;DHT22;50167;47.958;21.780;2023-05-14T04:43:19;15.71;56.60
63976;DHT22;50167;47.958;21.780;2023-05-14T04:45:46;14.86;57.33
63976;DHT22;50167;47.958;21.780;2023-05-14T04:48:12;14.20;59.00
63976;DHT22;50167;47.958;21.780;2023-05-14T04:50:38;13.75;60.57
63976;DHT22;50167;47.958;21.780;2023-05-14T04:53:05;13.41;61.80
63976;DHT22;50167;47.958;21.780;2023-05-14T04:55:31;13.78;63.62
63976;DHT22;50167;47.958;21.780;2023-05-14T04:57:57;14.88;62.59
63976;DHT22;50167;47.958;21.780;2023-05-14T05:00:24;15.77;60.24
63976;DHT22;50167;47.958;21.780;2023-05-14T05:02:50;15.93;57.04
63976;DHT22;50167;47.958;21.780;2023-05-14T05:05:16;15.30;58.94
63976;DHT22;50167;47.958;21.780;2023-05-14T05:07:43;14.71;60.31
63976;DHT22;50167;47.958;21.780;2023-05-14T05:10:09;14.31;59.55
63976;DHT22;50167;47.958;21.780;2023-05-14T05:12:35;14.05;61.25
63976;DHT22;50167;47.958;21.780;2023-05-14T05:15:03;13.84;62.90
63976;DHT22;50167;47.958;21.780;2023-05-14T05:17:29;14.45;63.22
63976;DHT22;50167;47.958;21.780;2023-05-14T05:19:56;15.70;61.82
63976;DHT22;50167;47.958;21.780;2023-05-14T05:22:22;16.60;59.21
63976;DHT22;50167;47.958;21.780;2023-05-14T05:24:49;16.63;55.81
63976;DHT22;50167;47.958;21.780;2023-05-14T05:27:15;15.93;56.13
63976;DHT22;50167;47.958;21.780;2023-05-14T05:29:45;15.34;58.02
63976;DHT22;50167;47.958;21.780;2023-05-14T05:32:11;14.99;58.37
63976;DHT22;50167;47.958;21.780;2023-05-14T05:34:38;14.78;60.18
63976;DHT22;50167;47.958;21.780;2023-05-14T05:37:04;14.63;61.04
63976;DHT22;50167;47.958;21.780;2023-05-14T05:39:30;14.45;61.90
63976;DHT22;50167;47.958;21.780;2023-05-14T05:41:59;14.33;62.26
63976;DHT22;50167;47.958;21.780;2023-05-14T05:44:26;14.98;62.89
63976;DHT22;50167;47.958;21.780;2023-05-14T05:46:52;16.33;61.07
63976;DHT22;50167;47.958;21.780;2023-05-14T05:49:20;17.46;58.22
63976;DHT22;50167;47.958;21.780;2023-05-14T05:51:47;17.69;54.29
63976;DHT22;50167;47.958;21.780;2023-05-14T05:54:13;17.19;54.21
63976;DHT22;50167;47.958;21.780;2023-05-14T05:56:39;16.74;55.75
63976;DHT22;50167;47.958;21.780;2023-05-14T05:59:06;16.46;57.40
63976;DHT22;50167;47.958;21.780;2023-05-14T06:01:32;16.30;58.36
63976;DHT22;50167;47.958;21.780;2023-05-14T06:03:58;16.23;57.17
63976;DHT22;50167;47.958;21.780;2023-05-14T06:06:25;16.18;56.78
63976;DHT22;50167;47.958;21.780;2023-05-14T06:08:51;16.16;55.95
63976;DHT22;50167;47.958;21.780;2023-05-14T06:11:17;16.16;57.97
63976;DHT22;50167;47.958;21.780;2023-05-14T06:13:43;16.19;57.90
63976;DHT22;50167;47.958;21.780;2023-05-14T06:16:10;16.29;57.11
63976;DHT22;50167;47.958;21.780;2023-05-14T06:18:36;16.35;58.90
63976;DHT22;50167;47.958;21.780;2023-05-14T06:21:03;16.43;56.73
63976;DHT22;50167;47.958;21.780;2023-05-14T06:23:29;16.53;56.58
63976;DHT22;50167;47.958;21.780;2023-05-14T06:25:55;16.63;56.56
63976;DHT22;50167;47.958;21.780;2023-05-14T06:28:21;16.74;55.70
63976;DHT22;50167;47.958;21.780;2023-05-14T06:30:51;16.86;55.85
63976;DHT22;50167;47.958;21.780;2023-05-14T06:33:19;16.98;54.94
63976;DHT22;50167;47.958;21.780;2023-05-14T06:35:48;17.11;55.61
63976;DHT22;50167;47.958;21.780;2023-05-14T06:38:14;17.30;54.94
63976;DHT22;50167;47.958;21.780;2023-05-14T06:40:40;17.49;54.28
63976;DHT22;50167;47.958;21.780;2023-05-14T06:43:06;17.67;54.21
63976;DHT22;50167;47.958;21.780;2023-05-14T06:45:32;17.81;54.05
63976;DHT22;50167;47.958;21.780;2023-05-14T06:47:58;17.97;52.78
63976;DHT22;50167;47.958;21.780;2023-05-14T06:50:25;18.11;53.46
63976;DHT22;50167;47.958;21.780;2023-05-14T06:52:51;18.18;52.68
63976;DHT22;50167;47.958;21.780;2023-05-14T06:55:17;18.23;52.35
63976;DHT22;50167;47.958;21.780;2023-05-14T06:57:43;18.31;51.58
63976;DHT22;50167;47.958;21.780;2023-05-14T07:00:10;18.37;51.80
63976;DHT22;50167;47.958;21.780;2023-05-14T07:02:37;18.42;51.50
63976;DHT22;50167;47.958;21.780;2023-05-14T07:05:03;18.55;51.80
63976;DHT22;50167;47.958;21.780;2023-05-14T07:07:30;18.71;50.06
63976;DHT22;50167;47.958;21.780;2023-05-14T07:09:56;18.84;50.08
63976;DHT22;50167;47.958;21.780;2023-05-14T07:12:22;18.93;50.50
63976;DHT22;50167;47.958;21.780;2023-05-14T07:14:49;19.04;50.45
63976;DHT22;50167;47.958;21.780;2023-05-14T07:17:16;19.15;48.90
63976;DHT22;50167;47.958;21.780;2023-05-14T07:19:43;19.32;50.69
63976;DHT22;50167;47.958;21.780;2023-05-14T07:22:09;19.45;48.68
63976;DHT22;50167;47.958;21.780;2023-05-14T07:24:36;19.59;48.13
63976;DHT22;50167;47.958;21.780;2023-05-14T07:27:02;19.73;47.03
63976;DHT22;50167;47.958;21.780;2023-05-14T07:29:28;19.81;48.04
63976;DHT22;50167;47.958;21.780;2023-05-14T07:31:55;19.90;47.44
63976;DHT22;50167;47.958;21.780;2023-05-14T07:34:21;20.01;47.66
63976;DHT22;50167;47.958;21.780;2023-05-14T07:36:48;20.14;46.48
63976;DHT22;50167;47.958;21.780;2023-05-14T07:39:14;20.23;46.15
63976;DHT22;50167;47.958;21.780;2023-05-14T07:41:40;20.27;45.16
63976;DHT22;50167;47.958;21.780;2023-05-14T07:47:57;20.52;45.56
63976;DHT22;50167;47.958;21.780;2023-05-14T07:50:23;20.62;44.74
63976;DHT22;50167;47.958;21.780;2023-05-14T07:52:50;20.71;44.90
63976;DHT22;50167;47.958;21.780;2023-05-14T07:55:17;20.80;43.81
63976;DHT22;50167;47.958;21.780;2023-05-14T07:57:43;20.93;44.46
63976;DHT22;50167;47.958;21.780;2023-05-14T08:00:11;21.06;44.05
63976;DHT22;50167;47.958;21.780;2023-05-14T08:02:38;21.22;43.14
63976;DHT22;50167;47.958;21.780;2023-05-14T08:05:05;21.41;43.33
63976;DHT22;50167;47.958;21.780;2023-05-14T08:07:31;21.61;42.62
63976;DHT22;50167;47.958;21.780;2023-05-14T08:09:58;21.82;42.04
63976;DHT22;50167;47.958;21.780;2023-05-14T08:12:25;21.96;41.82
63976;DHT22;50167;47.958;21.780;2023-05-14T08:14:51;22.07;40.47
63976;DHT22;50167;47.958;21.780;2023-05-14T08:17:18;22.13;39.78
63976;DHT22;50167;47.958;21.780;2023-05-14T08:19:44;22.06;39.79
63976;DHT22;50167;47.958;21.780;2023-05-14T08:22:11;22.00;40.59
63976;DHT22;50167;47.958;21.780;2023-05-14T08:24:38;21.97;40.55
63976;DHT22;50167;47.958;21.780;2023-05-14T08:27:04;22.03;40.44
63976;DHT22;50167;47.958;21.780;2023-05-14T08:29:31;22.07;39.26
63976;DHT22;50167;47.958;21.780;2023-05-14T08:31:57;22.13;39.23
63976;DHT22;50167;47.958;21.780;2023-05-14T08:34:23;22.20;39.01
63976;DHT22;50167;47.958;21.780;2023-05-14T08:36:51;22.33;39.38
63976;DHT22;50167;47.958;21.780;2023-05-14T08:39:17;22.48;39.04
63976;DHT22;50167;47.958;21.780;2023-05-14T08:41:44;22.62;38.37
63976;DHT22;50167;47.958;21.780;2023-05-14T08:44:19;22.70;38.70
63976;DHT22;50167;47.958;21.780;2023-05-14T08:46:46;22.81;37.55
63976;DHT22;50167;47.958;21.780;2023-05-14T08:52:01;23.07;37.61
63976;DHT22;50167;47.958;21.780;2023-05-14T08:54:29;23.19;37.71
63976;DHT22;50167;47.958;21.780;2023-05-14T08:56:57;23.32;37.07
63976;DHT22;50167;47.958;21.780;2023-05-14T08:59:24;23.44;37.61
63976;DHT22;50167;47.958;21.780;2023-05-14T09:01:53;23.57;36.49
63976;DHT22;50167;47.958;21.780;2023-05-14T09:04:23;23.64;35.98
63976;DHT22;50167;47.958;21.780;2023-05-14T09:06:51;23.65;35.93
63976;DHT22;50167;47.958;21.780;2023-05-14T09:09:21;23.60;35.31
63976;DHT22;50167;47.958;21.780;2023-05-14T09:11:50;23.53;34.91
63976;DHT22;50167;47.958;21.780;2023-05-14T09:14:16;23.46;35.07
63976;DHT22;50167;47.958;21.780;2023-05-14T09:16:48;23.41;34.95
63976;DHT22;50167;47.958;21.780;2023-05-14T09:19:15;23.40;34.84
63976;DHT22;50167;47.958;21.780;2023-05-14T09:21:47;23.39;34.35
63976;DHT22;50167;47.958;21.780;2023-05-14T09:24:27;23.34;35.04
63976;DHT22;50167;47.958;21.780;2023-05-14T09:26:57;23.36;34.97
63976;DHT22;50167;47.958;21.780;2023-05-14T09:29:30;23.39;35.22
63976;DHT22;50167;47.958;21.780;2023-05-14T09:31:56;23.41;34.69
63976;DHT22;50167;47.958;21.780;2023-05-14T09:34:32;23.46;35.31
63976;DHT22;50167;47.958;21.780;2023-05-14T09:37:06;23.51;35.01
63976;DHT22;50167;47.958;21.780;2023-05-14T09:39:34;23.62;34.63
63976;DHT22;50167;47.958;21.780;2023-05-14T09:42:01;23.69;33.94
63976;DHT22;50167;47.958;21.780;2023-05-14T09:44:28;23.78;34.05
63976;DHT22;50167;47.958;21.780;2023-05-14T09:46:55;23.84;34.23
63976;DHT22;50167;47.958;21.780;2023-05-14T09:49:21;23.98;34.31
63976;DHT22;50167;47.958;21.780;2023-05-14T09:51:48;24.16;33.99
63976;DHT22;50167;47.958;21.780;2023-05-14T09:54:17;24.30;32.98
63976;DHT22;50167;47.958;21.780;2023-05-14T09:56:43;24.38;33.66
63976;DHT22;50167;47.958;21.780;2023-05-14T09:59:10;24.42;33.52
63976;DHT22;50167;47.958;21.780;2023-05-14T10:01:37;24.44;33.01
63976;DHT22;50167;47.958;21.780;2023-05-14T10:04:06;24.47;33.91
63976;DHT22;50167;47.958;21.780;2023-05-14T10:06:37;24.52;32.58
63976;DHT22;50167;47.958;21.780;2023-05-14T10:09:09;24.57;33.12
63976;DHT22;50167;47.958;21.780;2023-05-14T10:11:37;24.53;32.79
63976;DHT22;50167;47.958;21.780;2023-05-14T10:14:13;24.49;33.29
63976;DHT22;50167;47.958;21.780;2023-05-14T10:16:51;24.43;31.66
63976;DHT22;50167;47.958;21.780;2023-05-14T10:19:21;24.44;33.35
63976;DHT22;50167;47.958;21.780;2023-05-14T10:21:54;24.50;32.87
63976;DHT22;50167;47.958;21.780;2023-05-14T10:24:20;24.61;33.13
63976;DHT22;50167;47.958;21.780;2023-05-14T10:26:47;24.75;32.19
63976;DHT22;50167;47.958;21.780;2023-05-14T10:29:13;24.75;33.17
63976;DHT22;50167;47.958;21.780;2023-05-14T10:31:51;24.80;32.30
63976;DHT22;50167;47.958;21.780;2023-05-14T10:34:42;24.82;34.71
63976;DHT22;50167;47.958;21.780;2023-05-14T10:37:17;24.90;33.64
63976;DHT22;50167;47.958;21.780;2023-05-14T10:42:38;25.08;32.97
63976;DHT22;50167;47.958;21.780;2023-05-14T10:45:08;25.09;32.90
63976;DHT22;50167;47.958;21.780;2023-05-14T10:47:37;25.05;33.03
63976;DHT22;50167;47.958;21.780;2023-05-14T10:50:07;25.04;32.37
63976;DHT22;50167;47.958;21.780;2023-05-14T10:52:34;25.02;32.22
63976;DHT22;50167;47.958;21.780;2023-05-14T10:55:05;24.85;32.30
63976;DHT22;50167;47.958;21.780;2023-05-14T10:57:39;24.73;31.73
63976;DHT22;50167;47.958;21.780;2023-05-14T11:00:08;24.53;32.54
63976;DHT22;50167;47.958;21.780;2023-05-14T11:02:37;24.39;33.21
63976;DHT22;50167;47.958;21.780;2023-05-14T11:05:16;24.33;33.27
63976;DHT22;50167;47.958;21.780;2023-05-14T11:07:47;24.27;33.17
63976;DHT22;50167;47.958;21.780;2023-05-14T11:10:16;24.23;32.13
63976;DHT22;50167;47.958;21.780;2023-05-14T11:12:46;24.11;31.97
63976;DHT22;50167;47.958;21.780;2023-05-14T11:15:22;24.02;33.26
63976;DHT22;50167;47.958;21.780;2023-05-14T11:17:51;23.94;32.40
63976;DHT22;50167;47.958;21.780;2023-05-14T11:20:19;23.87;32.09
63976;DHT22;50167;47.958;21.780;2023-05-14T11:22:47;23.75;32.76
63976;DHT22;50167;47.958;21.780;2023-05-14T11:25:14;23.67;33.08
63976;DHT22;50167;47.958;21.780;2023-05-14T11:27:43;23.57;32.97
63976;DHT22;50167;47.958;21.780;2023-05-14T11:30:18;23.46;33.84
63976;DHT22;50167;47.958;21.780;2023-05-14T11:32:46;23.40;34.25
63976;DHT22;50167;47.958;21.780;2023-05-14T11:35:13;23.33;34.08
63976;DHT22;50167;47.958;21.780;2023-05-14T11:37:41;23.26;34.28
63976;DHT22;50167;47.958;21.780;2023-05-14T11:40:16;23.19;34.35
63976;DHT22;50167;47.958;21.780;2023-05-14T11:42:42;23.09;33.91
63976;DHT22;50167;47.958;21.780;2023-05-14T11:45:13;22.96;34.26
63976;DHT22;50167;47.958;21.780;2023-05-14T11:47:40;22.88;34.69
63976;DHT22;50167;47.958;21.780;2023-05-14T11:50:08;22.82;34.44
63976;DHT22;50167;47.958;21.780;2023-05-14T11:52:39;22.74;35.09
63976;DHT22;50167;47.958;21.780;2023-05-14T11:55:11;22.67;35.45
63976;DHT22;50167;47.958;21.780;2023-05-14T11:57:38;22.58;35.44
63976;DHT22;50167;47.958;21.780;2023-05-14T12:00:09;22.51;36.02
63976;DHT22;50167;47.958;21.780;2023-05-14T12:02:37;22.44;35.91
63976;DHT22;50167;47.958;21.780;2023-05-14T12:05:05;22.37;35.99
63976;DHT22;50167;47.958;21.780;2023-05-14T12:11:22;22.21;36.81
63976;DHT22;50167;47.958;21.780;2023-05-14T12:13:48;22.19;36.80
63976;DHT22;50167;47.958;21.780;2023-05-14T12:16:14;22.16;37.34
63976;DHT22;50167;47.958;21.780;2023-05-14T12:18:42;22.17;37.19
63976;DHT22;50167;47.958;21.780;2023-05-14T12:21:09;22.16;36.83
63976;DHT22;50167;47.958;21.780;2023-05-14T12:23:38;22.12;36.20
63976;DHT22;50167;47.958;21.780;2023-05-14T12:26:07;22.03;36.50
63976;DHT22;50167;47.958;21.780;2023-05-14T12:28:34;21.93;36.98
63976;DHT22;50167;47.958;21.780;2023-05-14T12:31:00;21.88;36.60
63976;DHT22;50167;47.958;21.780;2023-05-14T12:33:27;21.82;37.25
63976;DHT22;50167;47.958;21.780;2023-05-14T12:35:53;21.82;37.68
63976;DHT22;50167;47.958;21.780;2023-05-14T12:38:28;21.76;37.66
63976;DHT22;50167;47.958;21.780;2023-05-14T12:40:56;21.72;38.24
63976;DHT22;50167;47.958;21.780;2023-05-14T12:43:22;21.68;38.32
63976;DHT22;50167;47.958;21.780;2023-05-14T12:45:49;21.66;37.83
63976;DHT22;50167;47.958;21.780;2023-05-14T12:48:15;21.62;37.69
63976;DHT22;50167;47.958;21.780;2023-05-14T12:50:41;21.58;38.21
63976;DHT22;50167;47.958;21.780;2023-05-14T12:53:07;21.58;38.70
63976;DHT22;50167;47.958;21.780;2023-05-14T12:55:34;21.55;38.69
63976;DHT22;50167;47.958;21.780;2023-05-14T12:58:00;21.55;38.21
63976;DHT22;50167;47.958;21.780;2023-05-14T13:00:26;21.52;38.29
63976;DHT22;50167;47.958;21.780;2023-05-14T13:02:52;21.48;38.23
63976;DHT22;50167;47.958;21.780;2023-05-14T13:05:19;21.44;38.26
63976;DHT22;50167;47.958;21.780;2023-05-14T13:07:45;21.36;38.17
63976;DHT22;50167;47.958;21.780;2023-05-14T13:10:11;21.33;37.89
63976;DHT22;50167;47.958;21.780;2023-05-14T13:12:38;21.28;38.32
63976;DHT22;50167;47.958;21.780;2023-05-14T13:15:19;21.24;38.44
63976;DHT22;50167;47.958;21.780;2023-05-14T13:17:56;21.22;38.62
63976;DHT22;50167;47.958;21.780;2023-05-14T13:20:22;21.21;39.74
63976;DHT22;50167;47.958;21.780;2023-05-14T13:22:50;21.21;39.40
63976;DHT22;50167;47.958;21.780;2023-05-14T13:25:17;21.20;39.05
63976;DHT22;50167;47.958;21.780;2023-05-14T13:27:43;21.22;40.09
63976;DHT22;50167;47.958;21.780;2023-05-14T13:30:10;21.25;40.87
63976;DHT22;50167;47.958;21.780;2023-05-14T13:32:37;21.25;40.75
63976;DHT22;50167;47.958;21.780;2023-05-14T13:35:04;21.20;41.98
63976;DHT22;50167;47.958;21.780;2023-05-14T13:37:30;21.15;42.52
63976;DHT22;50167;47.958;21.780;2023-05-14T13:39:56;21.00;42.34
63976;DHT22;50167;47.958;21.780;2023-05-14T13:42:22;20.84;43.11
63976;DHT22;50167;47.958;21.780;2023-05-14T13:44:49;20.69;44.06
63976;DHT22;50167;47.958;21.780;2023-05-14T13:47:15;20.53;45.26
63976;DHT22;50167;47.958;21.780;2023-05-14T13:49:42;20.38;45.47
63976;DHT22;50167;47.958;21.780;2023-05-14T13:52:08;20.23;46.02
63976;DHT22;50167;47.958;21.780;2023-05-14T13:54:34;20.11;46.31
63976;DHT22;50167;47.958;21.780;2023-05-14T13:57:00;19.99;46.71
63976;DHT22;50167;47.958;21.780;2023-05-14T13:59:26;19.91;47.41
63976;DHT22;50167;47.958;21.780;2023-05-14T14:01:53;19.84;48.22
63976;DHT22;50167;47.958;21.780;2023-05-14T14:04:19;19.76;48.34
63976;DHT22;50167;47.958;21.780;2023-05-14T14:06:45;19.66;50.12
63976;DHT22;50167;47.958;21.780;2023-05-14T14:09:11;19.60;50.35
63976;DHT22;50167;47.958;21.780;2023-05-14T14:11:39;19.56;51.89
63976;DHT22;50167;47.958;21.780;2023-05-14T14:14:05;19.49;51.25
63976;DHT22;50167;47.958;21.780;2023-05-14T14:16:31;19.46;52.90
63976;DHT22;50167;47.958;21.780;2023-05-14T14:18:58;19.42;52.86
63976;DHT22;50167;47.958;21.780;2023-05-14T14:21:24;19.35;53.12
63976;DHT22;50167;47.958;21.780;2023-05-14T14:23:50;19.31;54.35
63976;DHT22;50167;47.958;21.780;2023-05-14T14:26:16;19.21;55.55
63976;DHT22;50167;47.958;21.780;2023-05-14T14:28:43;19.12;56.44
63976;DHT22;50167;47.958;21.780;2023-05-14T14:31:09;19.04;56.86
63976;DHT22;50167;47.958;21.780;2023-05-14T14:33:36;18.97;57.80
63976;DHT22;50167;47.958;21.780;2023-05-14T14:36:02;18.91;57.78
63976;DHT22;50167;47.958;21.780;2023-05-14T14:38:29;18.84;57.56
63976;DHT22;50167;47.958;21.780;2023-05-14T14:40:56;18.76;58.33
63976;DHT22;50167;47.958;21.780;2023-05-14T14:43:23;18.69;58.28
63976;DHT22;50167;47.958;21.780;2023-05-14T14:45:49;18.60;59.42
63976;DHT22;50167;47.958;21.780;2023-05-14T14:48:32;18.53;60.36
63976;DHT22;50167;47.958;21.780;2023-05-14T14:51:00;18.45;61.50
63976;DHT22;50167;47.958;21.780;2023-05-14T14:53:27;18.32;62.77
63976;DHT22;50167;47.958;21.780;2023-05-14T14:55:53;18.97;63.46
63976;DHT22;50167;47.958;21.780;2023-05-14T14:58:20;20.20;62.24
63976;DHT22;50167;47.958;21.780;2023-05-14T15:00:53;21.03;60.36
63976;DHT22;50167;47.958;21.780;2023-05-14T15:03:17;21.58;59.22
63976;DHT22;50167;47.958;21.780;2023-05-14T15:05:44;21.41;57.42
63976;DHT22;50167;47.958;21.780;2023-05-14T15:08:10;20.62;58.60
63976;DHT22;50167;47.958;21.780;2023-05-14T15:10:36;19.88;60.86
63976;DHT22;50167;47.958;21.780;2023-05-14T15:13:05;19.34;62.03
63976;DHT22;50167;47.958;21.780;2023-05-14T15:15:35;18.90;62.90
63976;DHT22;50167;47.958;21.780;2023-05-14T15:18:03;19.24;64.61
63976;DHT22;50167;47.958;21.780;2023-05-14T15:20:29;20.27;64.56
63976;DHT22;50167;47.958;21.780;2023-05-14T15:22:56;20.91;62.83
63976;DHT22;50167;47.958;21.780;2023-05-14T15:25:23;21.38;62.13
63976;DHT22;50167;47.958;21.780;2023-05-14T15:27:49;21.79;61.02
63976;DHT22;50167;47.958;21.780;2023-05-14T15:30:16;22.12;60.92
63976;DHT22;50167;47.958;21.780;2023-05-14T15:32:43;22.41;59.63
63976;DHT22;50167;47.958;21.780;2023-05-14T15:35:10;22.12;57.68
63976;DHT22;50167;47.958;21.780;2023-05-14T15:37:48;21.27;59.11
63976;DHT22;50167;47.958;21.780;2023-05-14T15:44:08;19.76;62.63
63976;DHT22;50167;47.958;21.780;2023-05-14T15:46:34;20.03;63.93